Time;durP1;ratioP1;P1;durP2;ratioP2;P2;SDS_P1;SDS_P2;PMS_P1;PMS_P2;Temp;Humidity;BMP_temperature;BMP_pressure;BME280_temperature;BME280_humidity;BME280_pressure;Samples;Min_cycle;Max_cycle;Signal;HPM_P1;HPM_P2
2022/01/27 00:04:52;;;;;;;46.63;17.75;;;6.00;99.90;;;;;;5126927;27;20071;-66
2022/01/27 00:07:18;;;;;;;36.80;16.67;;;6.30;99.90;;;;;;5093068;28;20043;-66
2022/01/27 00:10:02;;;;;;;46.25;17.85;;;5.90;99.90;;;;;;5093644;28;20050;-66
2022/01/27 00:12:28;;;;;;;44.22;17.23;;;5.70;99.90;;;;;;5093492;28;20054;-66
2022/01/27 00:15:07;;;;;;;36.75;17.60;;;;;;;;;;5092333;28;20048;-67
2022/01/27 00:17:38;;;;;;;49.65;20.20;;;;;;;;;;5093334;28;20051;-64
2022/01/27 00:20:05;;;;;;;44.22;19.98;;;5.80;99.90;;;;;;5093415;28;20453;-66
2022/01/27 00:22:30;;;;;;;51.33;20.00;;;6.00;99.90;;;;;;5093148;28;20037;-67
2022/01/27 00:24:56;;;;;;;49.28;18.27;;;6.10;99.90;;;;;;5093214;28;20059;-65
2022/01/27 00:27:22;;;;;;;43.67;18.30;;;6.10;99.90;;;;;;5093235;28;20399;-66
2022/01/27 00:29:50;;;;;;;43.10;18.42;;;6.00;99.90;;;;;;5093045;28;20124;-67
2022/01/27 00:32:15;;;;;;;49.10;19.63;;;6.10;99.90;;;;;;5091511;28;20055;-66
2022/01/27 00:34:41;;;;;;;45.72;18.55;;;6.00;99.90;;;;;;5092684;28;20054;-66
2022/01/27 00:37:07;;;;;;;55.70;20.02;;;5.90;99.90;;;;;;5092920;28;20054;-66
2022/01/27 00:39:32;;;;;;;45.97;18.40;;;6.00;99.90;;;;;;5092900;28;20055;-69
2022/01/27 00:41:58;;;;;;;41.40;18.70;;;5.90;99.90;;;;;;5075149;28;20065;-67
2022/01/27 00:44:24;;;;;;;56.70;19.88;;;5.90;99.90;;;;;;5092840;28;20088;-66
2022/01/27 00:46:50;;;;;;;46.60;19.95;;;6.10;99.90;;;;;;5092943;28;20040;-66
2022/01/27 00:49:15;;;;;;;47.83;19.90;;;6.00;99.90;;;;;;5091732;28;20058;-66
2022/01/27 00:51:45;;;;;;;48.50;19.90;;;;;;;;;;5074847;28;20048;-66
2022/01/27 00:54:20;;;;;;;49.20;19.40;;;;;;;;;;5092890;28;20149;-66
2022/01/27 00:56:53;;;;;;;38.25;17.90;;;;;;;;;;5092947;28;20054;-66
2022/01/27 00:59:51;;;;;;;53.05;19.77;;;5.90;99.90;;;;;;5092833;28;20545;-66
2022/01/27 01:02:47;;;;;;;;;;;6.00;99.90;;;;;;5093307;28;20491;-65
2022/01/27 01:05:45;;;;;;;48.10;20.05;;;5.90;99.90;;;;;;5092180;28;19921;-66
2022/01/27 01:07:54;;;;;;;44.60;18.88;;;5.80;99.90;;;;;;5090811;28;20067;-66
2022/01/27 01:15:28;;;;;;;46.45;19.70;;;5.70;99.90;;;;;;5091457;28;20052;-66
2022/01/27 01:18:04;;;;;;;47.05;19.13;;;5.80;99.90;;;;;;5092810;28;20043;-65
2022/01/27 01:33:57;;;;;;;42.78;20.20;;;;;;;;;;5091940;28;20540;-65
2022/01/27 01:37:07;;;;;;;40.10;18.05;;;5.80;99.90;;;;;;5092457;28;20051;-66
2022/01/27 01:39:12;;;;;;;48.40;19.50;;;6.20;99.90;;;;;;5083838;28;20138;-67
2022/01/27 01:41:39;;;;;;;52.83;21.88;;;5.70;99.90;;;;;;5092563;28;20090;-66
2022/01/27 01:44:05;;;;;;;48.08;20.90;;;6.10;99.90;;;;;;5092417;28;20050;-65
2022/01/27 01:46:31;;;;;;;49.47;22.10;;;5.70;99.90;;;;;;5094642;28;20044;-66
2022/01/27 01:48:57;;;;;;;44.88;21.33;;;5.70;99.90;;;;;;5095101;28;20091;-65
2022/01/27 01:51:26;;;;;;;46.35;21.60;;;6.10;99.90;;;;;;5094769;28;20048;-65
2022/01/27 01:53:52;;;;;;;46.67;21.67;;;5.60;99.90;;;;;;5096242;28;20093;-65
2022/01/27 01:56:17;;;;;;;46.00;22.42;;;5.60;99.90;;;;;;5096091;28;20526;-66
2022/01/27 01:58:43;;;;;;;45.15;21.33;;;6.00;99.90;;;;;;5095985;28;20047;-67
2022/01/27 02:01:09;;;;;;;56.92;23.08;;;6.00;99.90;;;;;;5095763;28;20043;-68
2022/01/27 02:03:35;;;;;;;52.03;22.35;;;;;;;;;;5095728;28;20036;-65
2022/01/27 02:06:01;;;;;;;60.63;24.98;;;;;;;;;;5094742;28;20134;-65
2022/01/27 02:08:44;;;;;;;47.38;23.33;;;5.70;99.90;;;;;;5095768;28;20052;-65
2022/01/27 02:19:27;;;;;;;52.95;23.25;;;5.90;99.90;;;;;;5095499;28;20063;-66
2022/01/27 02:21:58;;;;;;;52.35;22.88;;;5.90;99.90;;;;;;5095383;28;20040;-65
2022/01/27 02:24:28;;;;;;;52.60;24.60;;;6.00;99.90;;;;;;5095665;28;20083;-66
2022/01/27 02:26:55;;;;;;;48.55;23.30;;;;;;;;;;5095590;28;20079;-66
2022/01/27 02:29:21;;;;;;;;;;;5.80;99.90;;;;;;5095733;28;20070;-66
2022/01/27 02:31:50;;;;;;;49.80;22.02;;;5.80;99.90;;;;;;5095359;28;19942;-66
2022/01/27 02:34:16;;;;;;;49.22;22.23;;;5.90;99.90;;;;;;5095290;28;20503;-67
2022/01/27 02:36:42;;;;;;;53.03;23.05;;;5.90;99.90;;;;;;5094113;28;20058;-65
2022/01/27 02:39:09;;;;;;;50.08;21.50;;;;;;;;;;5095142;28;20048;-67
2022/01/27 02:41:48;;;;;;;56.97;22.65;;;5.70;99.90;;;;;;5095152;28;20043;-66
2022/01/27 02:44:20;;;;;;;44.78;22.02;;;5.80;99.90;;;;;;5095178;28;20050;-66
2022/01/27 02:46:49;;;;;;;50.35;22.75;;;5.80;99.90;;;;;;5093675;28;20422;-67
2022/01/27 02:49:15;;;;;;;51.08;23.17;;;;;;;;;;5094935;28;20099;-66
2022/01/27 02:51:41;;;;;;;56.80;23.92;;;5.90;99.90;;;;;;5095057;28;20043;-66
2022/01/27 02:54:07;;;;;;;45.78;22.13;;;5.90;99.90;;;;;;5093523;28;20050;-66
2022/01/27 02:56:33;;;;;;;53.08;25.33;;;6.40;99.90;;;;;;5094758;28;20043;-65
2022/01/27 02:58:58;;;;;;;;;;;5.90;99.90;;;;;;5094835;28;20048;-65
2022/01/27 03:01:24;;;;;;;53.05;24.27;;;6.00;99.90;;;;;;5094522;28;20231;-65
2022/01/27 03:03:50;;;;;;;51.13;21.98;;;5.90;99.90;;;;;;5094680;28;20096;-66
2022/01/27 03:06:16;;;;;;;48.25;22.30;;;6.30;99.90;;;;;;5094757;28;20044;-66
2022/01/27 03:08:41;;;;;;;55.83;23.83;;;6.10;99.90;;;;;;5094540;28;20059;-66
2022/01/27 03:11:12;;;;;;;49.20;23.58;;;5.90;99.90;;;;;;5094745;28;20059;-67
2022/01/27 03:13:39;;;;;;;51.03;22.23;;;5.90;99.90;;;;;;5094547;28;20084;-67
2022/01/27 03:16:08;;;;;;;46.88;22.92;;;;;;;;;;5094405;28;20446;-64
2022/01/27 03:18:33;;;;;;;48.47;20.83;;;6.20;99.90;;;;;;5094317;28;20052;-66
2022/01/27 03:20:59;;;;;;;53.83;22.88;;;5.80;99.90;;;;;;5094232;28;20036;-65
2022/01/27 03:23:25;;;;;;;46.35;20.63;;;6.20;99.90;;;;;;5094436;28;20044;-66
2022/01/27 03:25:50;;;;;;;50.88;22.20;;;6.20;99.90;;;;;;5094400;28;20135;-66
2022/01/27 03:28:18;;;;;;;52.63;22.52;;;6.20;99.90;;;;;;5093156;28;20403;-66
2022/01/27 03:30:44;;;;;;;53.75;22.45;;;;;;;;;;5094062;28;20111;-66
2022/01/27 03:33:10;;;;;;;49.08;19.85;;;6.60;99.90;;;;;;5094361;28;20056;-65
2022/01/27 03:35:36;;;;;;;52.08;20.58;;;6.30;99.90;;;;;;5094049;28;20051;-67
2022/01/27 03:38:01;;;;;;;57.15;22.27;;;6.40;99.90;;;;;;5093846;28;20501;-66
2022/01/27 03:40:27;;;;;;;50.20;22.25;;;6.30;99.90;;;;;;5093994;28;20044;-65
2022/01/27 03:43:04;;;;;;;46.38;20.40;;;6.30;99.90;;;;;;5094048;28;20399;-66
2022/01/27 03:45:30;;;;;;;50.55;20.73;;;6.30;99.90;;;;;;5094225;28;20048;-66
2022/01/27 03:47:56;;;;;;;45.50;20.90;;;6.30;99.90;;;;;;5094190;28;20067;-67
2022/01/27 03:50:22;;;;;;;;;;;6.30;99.90;;;;;;5093119;28;20052;-66
2022/01/27 03:52:47;;;;;;;44.65;19.08;;;6.50;99.90;;;;;;5075807;28;20316;-66
2022/01/27 03:55:13;;;;;;;44.83;18.17;;;;;;;;;;5093990;28;20044;-66
2022/01/27 03:57:39;;;;;;;42.85;19.05;;;6.70;99.90;;;;;;5093845;28;20135;-66
2022/01/27 04:00:07;;;;;;;51.28;19.27;;;6.30;99.90;;;;;;5093380;28;20127;-66
2022/01/27 04:02:36;;;;;;;47.08;19.40;;;6.40;99.90;;;;;;5092668;28;20048;-66
2022/01/27 04:05:02;;;;;;;40.92;17.58;;;;;;;;;;5093463;28;20044;-65
2022/01/27 04:07:28;;;;;;;46.22;18.17;;;;;;;;;;5093706;28;20138;-66
2022/01/27 04:09:53;;;;;;;46.40;18.08;;;6.40;99.90;;;;;;5092585;28;20082;-66
2022/01/27 04:12:19;;;;;;;51.03;18.98;;;;;;;;;;5093686;28;20138;-66
2022/01/27 04:14:45;;;;;;;42.75;16.67;;;;;;;;;;5093172;28;20138;-66
2022/01/27 04:17:11;;;;;;;49.97;16.60;;;6.40;99.90;;;;;;5093191;28;20561;-66
2022/01/27 04:19:37;;;;;;;42.65;17.92;;;6.20;99.90;;;;;;5093301;28;20074;-66
2022/01/27 04:22:03;;;;;;;46.70;17.90;;;6.50;99.90;;;;;;5093342;28;20047;-67
2022/01/27 04:24:30;;;;;;;43.13;17.13;;;6.40;99.90;;;;;;5092083;28;20082;-67
2022/01/27 04:27:04;;;;;;;44.92;17.73;;;6.30;99.90;;;;;;5093209;28;20073;-66
2022/01/27 04:29:33;;;;;;;43.72;16.13;;;6.40;99.90;;;;;;5093033;28;20044;-66
2022/01/27 04:32:01;;;;;;;45.55;17.38;;;6.40;99.90;;;;;;5092858;28;20032;-66
2022/01/27 04:34:28;;;;;;;42.28;16.13;;;6.40;99.90;;;;;;5092956;28;20062;-66
2022/01/27 04:36:56;;;;;;;47.50;17.38;;;6.60;99.90;;;;;;5091844;28;20044;-67
2022/01/27 04:39:36;;;;;;;50.53;17.65;;;6.20;99.90;;;;;;5092111;28;20056;-67
2022/01/27 04:42:13;;;;;;;53.10;17.42;;;6.40;99.90;;;;;;5092982;28;20055;-65
2022/01/27 04:44:51;;;;;;;47.83;18.58;;;6.30;99.90;;;;;;5093045;28;20056;-67
2022/01/27 04:47:28;;;;;;;58.92;18.63;;;;;;;;;;5093380;28;20095;-66
2022/01/27 04:49:53;;;;;;;;;;;6.30;99.90;;;;;;5093235;28;20043;-64
2022/01/27 04:52:19;;;;;;;60.17;20.25;;;6.20;99.90;;;;;;5092948;28;19926;-65
2022/01/27 04:57:13;;;;;;;65.95;20.92;;;6.20;99.90;;;;;;5092243;28;20048;-68
2022/01/27 04:59:42;;;;;;;58.08;19.45;;;6.50;99.90;;;;;;5092216;28;20124;-66
2022/01/27 05:02:16;;;;;;;55.85;19.77;;;6.00;99.90;;;;;;5092737;28;20051;-67
2022/01/27 05:04:44;;;;;;;70.25;20.50;;;6.70;99.90;;;;;;5092883;28;20209;-68
2022/01/27 05:07:10;;;;;;;63.25;21.15;;;6.20;99.90;;;;;;5092742;28;20127;-65
2022/01/27 05:09:37;;;;;;;72.72;20.90;;;6.30;99.90;;;;;;5092460;28;20052;-66
2022/01/27 05:12:13;;;;;;;57.50;20.17;;;6.10;99.90;;;;;;5091325;28;20052;-67
2022/01/27 05:14:39;;;;;;;67.38;21.23;;;6.20;99.90;;;;;;5092881;28;20080;-66
2022/01/27 05:17:04;;;;;;;78.60;21.85;;;6.40;99.90;;;;;;5092724;28;20549;-65
2022/01/27 05:19:30;;;;;;;65.05;19.65;;;6.00;99.90;;;;;;5092537;28;20044;-64
2022/01/27 05:21:56;;;;;;;74.30;21.00;;;5.90;99.90;;;;;;5095602;28;20083;-65
2022/01/27 05:24:22;;;;;;;78.40;22.27;;;6.10;99.90;;;;;;5095452;28;20059;-65
2022/01/27 05:26:48;;;;;;;62.65;19.45;;;6.60;99.90;;;;;;5096583;28;20139;-66
2022/01/27 05:29:13;;;;;;;67.35;20.38;;;6.30;99.90;;;;;;5096327;28;20040;-65
2022/01/27 05:31:39;;;;;;;76.40;22.35;;;6.20;99.90;;;;;;5096405;28;20052;-68
2022/01/27 05:34:05;;;;;;;66.45;20.17;;;6.10;99.90;;;;;;5096013;28;20056;-66
2022/01/27 05:36:33;;;;;;;73.78;21.20;;;6.10;99.90;;;;;;5096328;28;20139;-66
2022/01/27 05:38:59;;;;;;;74.05;21.52;;;6.40;99.90;;;;;;5096283;28;20048;-65
2022/01/27 05:41:25;;;;;;;70.32;21.55;;;6.00;99.90;;;;;;5095934;28;20050;-66
2022/01/27 05:43:51;;;;;;;72.57;20.65;;;6.10;99.90;;;;;;5096338;28;20353;-66
2022/01/27 05:46:16;;;;;;;68.30;22.85;;;6.50;99.90;;;;;;5096086;28;20479;-66
2022/01/27 05:48:42;;;;;;;74.95;21.88;;;6.50;99.90;;;;;;5096117;28;20043;-66
2022/01/27 05:51:08;;;;;;;77.68;22.13;;;6.30;99.90;;;;;;5096069;28;20044;-66
2022/01/27 05:53:35;;;;;;;68.15;22.20;;;6.20;99.90;;;;;;5095691;28;20047;-68
2022/01/27 05:56:02;;;;;;;70.88;21.13;;;6.10;99.90;;;;;;5095907;28;20525;-67
2022/01/27 05:58:27;;;;;;;76.82;23.30;;;6.20;99.90;;;;;;5096249;28;20051;-67
2022/01/27 06:00:53;;;;;;;72.80;21.67;;;6.50;99.90;;;;;;5077898;28;20139;-67
2022/01/27 06:03:19;;;;;;;77.22;22.85;;;6.30;99.90;;;;;;5095899;28;20044;-64
2022/01/27 06:05:45;;;;;;;74.63;21.10;;;6.30;99.90;;;;;;5095772;28;20120;-66
2022/01/27 06:08:10;;;;;;;68.10;20.08;;;6.20;99.90;;;;;;5095677;28;20472;-67
2022/01/27 06:10:36;;;;;;;67.60;20.05;;;6.20;99.90;;;;;;5094492;28;20051;-66
2022/01/27 06:13:03;;;;;;;67.55;21.08;;;;;;;;;;5095718;28;20470;-67
2022/01/27 06:15:28;;;;;;;;;;;6.50;99.90;;;;;;5094891;28;20130;-67
2022/01/27 06:17:56;;;;;;;72.00;22.25;;;6.40;99.90;;;;;;5095668;28;19963;-66
2022/01/27 06:20:22;;;;;;;67.57;20.90;;;6.40;99.90;;;;;;5095517;28;20385;-66
2022/01/27 06:22:48;;;;;;;64.10;19.15;;;6.30;99.90;;;;;;5095320;28;20051;-67
2022/01/27 06:25:15;;;;;;;74.10;19.90;;;6.40;99.90;;;;;;5095180;28;20083;-66
2022/01/27 06:27:41;;;;;;;74.13;19.60;;;6.40;99.90;;;;;;5095783;28;20075;-67
2022/01/27 06:30:11;;;;;;;84.38;20.35;;;6.40;99.90;;;;;;5095242;28;20449;-65
2022/01/27 06:32:37;;;;;;;72.82;20.88;;;6.50;99.90;;;;;;5094177;28;20101;-67
2022/01/27 06:35:03;;;;;;;79.85;21.88;;;6.40;99.90;;;;;;5095375;28;20056;-67
2022/01/27 06:37:32;;;;;;;72.93;20.88;;;6.30;99.90;;;;;;5095184;28;20411;-67
2022/01/27 06:39:58;;;;;;;73.40;21.52;;;6.30;99.90;;;;;;5093896;28;20066;-67
2022/01/27 06:42:25;;;;;;;75.32;19.58;;;6.40;99.90;;;;;;5095008;28;20043;-66
2022/01/27 06:44:50;;;;;;;;;;;6.80;99.90;;;;;;5094327;28;20055;-67
2022/01/27 06:47:17;;;;;;;56.20;18.10;;;;;;;;;;5094984;28;20023;-68
2022/01/27 06:49:42;;;;;;;62.58;18.38;;;6.40;99.90;;;;;;5094770;28;20044;-67
2022/01/27 06:52:08;;;;;;;69.68;19.42;;;;;;;;;;5093903;28;20048;-67
2022/01/27 06:54:34;;;;;;;67.25;19.90;;;6.50;99.90;;;;;;5094707;28;20058;-68
2022/01/27 06:57:01;;;;;;;56.28;17.77;;;6.60;99.90;;;;;;5094843;28;20126;-69
2022/01/27 06:59:26;;;;;;;61.22;15.77;;;6.80;99.90;;;;;;5094919;28;20122;-68
2022/01/27 07:01:52;;;;;;;61.53;18.45;;;6.70;99.90;;;;;;5094744;28;20135;-69
2022/01/27 07:04:18;;;;;;;50.13;15.70;;;6.80;99.90;;;;;;5093649;28;20044;-69
2022/01/27 07:06:44;;;;;;;59.25;16.50;;;6.80;99.90;;;;;;5094769;28;20044;-67
2022/01/27 07:09:10;;;;;;;55.72;15.88;;;6.80;99.90;;;;;;5094284;28;20052;-68
2022/01/27 07:11:35;;;;;;;47.00;15.85;;;6.80;99.90;;;;;;5094542;28;20105;-67
2022/01/27 07:14:01;;;;;;;58.65;15.45;;;6.70;99.90;;;;;;5094499;28;20108;-68
2022/01/27 07:16:27;;;;;;;44.65;14.52;;;6.90;99.90;;;;;;5094393;28;20051;-67
2022/01/27 07:18:52;;;;;;;55.28;15.32;;;6.90;99.90;;;;;;5094295;28;20375;-68
2022/01/27 07:21:19;;;;;;;50.90;14.55;;;6.70;99.90;;;;;;5094047;28;20074;-66
2022/01/27 07:23:46;;;;;;;41.45;13.02;;;6.90;99.90;;;;;;5093925;28;20476;-66
2022/01/27 07:26:13;;;;;;;52.40;14.50;;;7.00;99.90;;;;;;5094345;28;20138;-68
2022/01/27 07:28:39;;;;;;;49.20;12.57;;;7.00;99.90;;;;;;5094221;28;20052;-67
2022/01/27 07:31:05;;;;;;;44.95;12.63;;;7.00;99.90;;;;;;5092987;28;20121;-67
2022/01/27 07:33:30;;;;;;;55.03;12.23;;;7.10;99.90;;;;;;5093549;28;20060;-70
2022/01/27 07:35:56;;;;;;;44.55;11.85;;;7.10;99.90;;;;;;5094567;28;20087;-66
2022/01/27 07:38:26;;;;;;;40.03;12.93;;;7.10;99.90;;;;;;5093880;28;20083;-66
2022/01/27 07:40:52;;;;;;;48.92;11.32;;;7.10;99.90;;;;;;5094378;28;20481;-66
2022/01/27 07:43:18;;;;;;;44.90;11.70;;;7.10;99.90;;;;;;5093777;28;20076;-66
2022/01/27 07:45:44;;;;;;;55.75;12.60;;;7.10;99.90;;;;;;5093809;28;20059;-66
2022/01/27 07:48:10;;;;;;;39.15;11.50;;;7.20;99.90;;;;;;5093710;28;20055;-66
2022/01/27 07:50:36;;;;;;;42.00;10.30;;;7.10;99.90;;;;;;5093805;28;20048;-67
2022/01/27 07:53:02;;;;;;;58.30;10.70;;;7.50;99.90;;;;;;5092223;28;20511;-66
2022/01/27 07:55:28;;;;;;;;;;;6.90;99.90;;;;;;5094029;28;20440;-66
2022/01/27 07:57:54;;;;;;;37.92;8.77;;;7.40;99.90;;;;;;5093576;28;19946;-67
2022/01/27 08:00:20;;;;;;;39.35;9.57;;;7.40;99.90;;;;;;5092702;28;20050;-69
2022/01/27 08:02:46;;;;;;;36.97;10.13;;;7.20;99.90;;;;;;5093608;28;20043;-65
2022/01/27 08:05:12;;;;;;;35.38;9.95;;;7.20;99.90;;;;;;5093134;28;20036;-72
2022/01/27 08:07:39;;;;;;;47.05;10.98;;;7.60;99.90;;;;;;5093591;28;20132;-67
2022/01/27 08:10:04;;;;;;;;;;;7.50;99.90;;;;;;5092716;28;20207;-66
2022/01/27 08:12:30;;;;;;;39.97;9.93;;;7.30;99.90;;;;;;5093510;28;20019;-67
2022/01/27 08:14:56;;;;;;;41.72;9.82;;;7.40;99.90;;;;;;5093217;28;20088;-68
2022/01/27 08:17:21;;;;;;;42.15;10.10;;;7.30;99.90;;;;;;5093071;28;20051;-67
2022/01/27 08:19:47;;;;;;;43.53;10.35;;;7.60;99.90;;;;;;5091818;28;20048;-69
2022/01/27 08:22:13;;;;;;;42.45;9.32;;;7.60;99.90;;;;;;5093436;28;20462;-66
2022/01/27 08:24:39;;;;;;;39.28;9.98;;;7.20;99.90;;;;;;5092919;28;20093;-67
2022/01/27 08:27:07;;;;;;;37.10;9.73;;;7.40;99.90;;;;;;5093201;28;20043;-67
2022/01/27 08:29:39;;;;;;;39.30;8.63;;;7.60;99.90;;;;;;5091783;28;20469;-67
2022/01/27 08:32:09;;;;;;;46.30;9.18;;;7.30;99.90;;;;;;5093035;28;20040;-67
2022/01/27 08:34:36;;;;;;;37.58;8.77;;;7.50;99.90;;;;;;5092865;28;20060;-68
2022/01/27 08:37:14;;;;;;;34.63;8.55;;;7.60;99.90;;;;;;5092822;28;20461;-66
2022/01/27 08:39:40;;;;;;;42.75;8.02;;;7.30;99.90;;;;;;5093041;28;20040;-66
2022/01/27 08:42:07;;;;;;;38.67;9.02;;;7.60;99.90;;;;;;5092780;28;20428;-66
2022/01/27 08:44:33;;;;;;;42.78;8.10;;;7.80;99.90;;;;;;5091495;28;20506;-67
2022/01/27 08:46:59;;;;;;;;;;;7.80;99.90;;;;;;5093210;28;20399;-66
2022/01/27 08:49:26;;;;;;;27.63;7.43;;;7.70;99.90;;;;;;5093179;28;19924;-67
2022/01/27 08:51:53;;;;;;;34.72;8.10;;;7.50;99.90;;;;;;5092835;28;20453;-65
2022/01/27 08:54:22;;;;;;;51.58;8.43;;;8.40;99.90;;;;;;5092767;28;20056;-67
2022/01/27 08:56:48;;;;;;;37.33;7.18;;;7.40;99.90;;;;;;5092322;28;20052;-66
2022/01/27 08:59:16;;;;;;;33.10;8.48;;;7.70;99.90;;;;;;5092523;28;20510;-67
2022/01/27 09:01:42;;;;;;;33.53;7.80;;;7.50;99.90;;;;;;5092724;28;20564;-66
2022/01/27 09:04:09;;;;;;;39.28;7.95;;;7.90;99.90;;;;;;5091336;28;20044;-67
2022/01/27 09:06:35;;;;;;;36.47;6.75;;;7.40;99.90;;;;;;5092698;28;20052;-68
2022/01/27 09:09:02;;;;;;;29.90;6.72;;;7.70;99.90;;;;;;5091483;28;20136;-69
2022/01/27 09:11:30;;;;;;;46.75;7.40;;;7.90;99.90;;;;;;5092690;28;20068;-68
2022/01/27 09:13:57;;;;;;;43.60;8.10;;;7.80;99.90;;;;;;5092754;28;20088;-68
2022/01/27 09:16:26;;;;;;;40.15;7.60;;;7.70;99.90;;;;;;5092403;28;20040;-68
2022/01/27 09:18:53;;;;;;;46.42;6.85;;;7.80;99.90;;;;;;5074414;28;20058;-65
2022/01/27 09:21:23;;;;;;;34.75;7.72;;;7.50;99.90;;;;;;5092578;28;20207;-66
2022/01/27 09:23:50;;;;;;;40.65;7.55;;;7.70;99.90;;;;;;5092584;28;20048;-67
2022/01/27 09:26:40;;;;;;;31.60;6.10;;;8.00;99.90;;;;;;5092454;28;20122;-68
2022/01/27 09:29:06;;;;;;;36.58;7.07;;;7.70;99.90;;;;;;5092612;28;20048;-66
2022/01/27 09:31:33;;;;;;;31.65;7.20;;;8.90;99.90;;;;;;5092423;28;20048;-68
2022/01/27 09:33:58;;;;;;;34.20;6.25;;;7.80;99.90;;;;;;5092090;28;20587;-66
2022/01/27 09:36:25;;;;;;;28.98;7.22;;;8.30;99.90;;;;;;5092435;28;20102;-67
2022/01/27 09:38:50;;;;;;;;;;;8.20;99.90;;;;;;5092546;28;20048;-67
2022/01/27 09:41:19;;;;;;;29.85;6.28;;;8.30;99.90;;;;;;5092383;28;19927;-66
2022/01/27 09:43:52;;;;;;;30.77;6.03;;;8.20;99.90;;;;;;5091329;28;20397;-66
2022/01/27 09:46:20;;;;;;;28.38;6.32;;;8.20;99.90;;;;;;5092676;28;20048;-67
2022/01/27 09:48:48;;;;;;;43.15;6.45;;;8.20;99.90;;;;;;5092017;28;20040;-68
2022/01/27 09:53:52;;;;;;;32.75;6.13;;;8.40;99.90;;;;;;5092305;28;20106;-69
2022/01/27 09:56:19;;;;;;;26.90;5.85;;;8.70;99.90;;;;;;5092374;28;20096;-67
2022/01/27 09:58:45;;;;;;;30.70;6.50;;;9.60;99.90;;;;;;5092123;28;20048;-65
2022/01/27 10:01:10;;;;;;;28.70;5.43;;;8.80;99.90;;;;;;5091694;28;20134;-66
2022/01/27 10:03:56;;;;;;;17.90;5.70;;;9.30;99.90;;;;;;5090530;28;20152;-67
2022/01/27 10:06:28;;;;;;;35.10;6.32;;;8.70;99.90;;;;;;5092221;28;20499;-66
2022/01/27 10:09:20;;;;;;;32.05;7.15;;;8.70;99.90;;;;;;5094845;28;20050;-67
2022/01/27 10:11:49;;;;;;;36.60;6.88;;;8.70;99.90;;;;;;5095614;28;20083;-66
2022/01/27 10:14:35;;;;;;;37.03;6.40;;;8.80;99.90;;;;;;5095476;28;20048;-67
2022/01/27 10:17:12;;;;;;;36.53;5.85;;;8.30;99.90;;;;;;5095490;28;20074;-68
2022/01/27 10:19:38;;;;;;;34.60;6.07;;;8.70;99.90;;;;;;5095582;28;20484;-68
2022/01/27 10:22:07;;;;;;;27.50;6.90;;;10.20;99.90;;;;;;5095498;28;20044;-66
2022/01/27 10:24:34;;;;;;;32.95;6.50;;;9.30;99.90;;;;;;5095387;28;20050;-66
2022/01/27 10:27:24;;;;;;;29.27;6.47;;;8.60;99.90;;;;;;5095351;28;20504;-66
2022/01/27 10:32:45;;;;;;;31.45;7.45;;;8.90;99.90;;;;;;5110710;28;20047;-69
2022/01/27 10:35:13;;;;;;;32.90;6.53;;;8.60;99.90;;;;;;5112388;28;20069;-66
2022/01/27 10:37:57;;;;;;;45.00;6.63;;;8.60;99.90;;;;;;5111814;28;20131;-68
2022/01/27 10:40:30;;;;;;;30.08;6.35;;;8.50;99.90;;;;;;5111663;28;20503;-68
2022/01/27 10:43:09;;;;;;;29.02;6.90;;;9.60;99.90;;;;;;5110392;28;20526;-67
2022/01/27 10:45:37;;;;;;;38.20;6.57;;;8.50;99.90;;;;;;5111684;28;20044;-69
2022/01/27 10:48:26;;;;;;;40.08;6.85;;;;;;;;;;5112066;28;20047;-66
2022/01/27 10:51:02;;;;;;;40.60;6.80;;;8.70;99.90;;;;;;5111102;28;20051;-69
2022/01/27 10:54:37;;;;;;;37.60;6.20;;;8.90;99.90;;;;;;5111132;28;20032;-68
2022/01/27 10:56:40;;;;;;;41.60;7.90;;;8.90;99.90;;;;;;5104471;28;20138;-68
2022/01/27 10:59:12;;;;;;;42.45;6.72;;;8.50;99.90;;;;;;5108513;27;20176;-68
2022/01/27 11:01:42;;;;;;;44.85;6.78;;;8.70;99.90;;;;;;5108413;28;20047;-69
2022/01/27 11:04:11;;;;;;;37.08;6.78;;;8.40;99.90;;;;;;5112571;28;20035;-68
2022/01/27 11:06:51;;;;;;;30.63;5.75;;;9.10;99.90;;;;;;5111844;28;20097;-69
2022/01/27 11:09:17;;;;;;;28.95;5.80;;;8.90;99.90;;;;;;5108903;28;20058;-71
2022/01/27 11:11:44;;;;;;;34.88;7.00;;;9.30;99.90;;;;;;5111862;28;20097;-71
2022/01/27 11:14:09;;;;;;;32.60;6.18;;;8.90;99.90;;;;;;5111608;28;20145;-70
2022/01/27 11:16:38;;;;;;;24.92;5.32;;;9.70;99.90;;;;;;5112360;28;20039;-68
2022/01/27 11:19:21;;;;;;;37.53;5.93;;;10.00;99.90;;;;;;5108013;28;20048;-66
2022/01/27 11:21:59;;;;;;;36.35;5.55;;;9.60;99.90;;;;;;5107687;28;20047;-67
2022/01/27 11:24:33;;;;;;;32.88;5.97;;;9.60;99.90;;;;;;5111380;28;20048;-68
2022/01/27 11:27:05;;;;;;;45.42;5.88;;;8.80;99.90;;;;;;5112173;27;20055;-67
2022/01/27 11:29:36;;;;;;;39.33;5.68;;;9.10;99.90;;;;;;5106905;28;20431;-67
2022/01/27 11:32:27;;;;;;;30.23;4.78;;;10.30;99.90;;;;;;5111893;28;20044;-67
2022/01/27 11:34:55;;;;;;;35.28;5.80;;;8.90;99.90;;;;;;5111568;28;20058;-67
2022/01/27 11:37:39;;;;;;;33.83;6.03;;;9.10;99.90;;;;;;5115218;27;20047;-67
2022/01/27 11:40:08;;;;;;;28.00;4.97;;;9.20;99.90;;;;;;5112907;27;20054;-70
2022/01/27 11:42:37;;;;;;;43.55;5.63;;;9.20;99.90;;;;;;5111556;28;20820;-67
2022/01/27 11:45:21;;;;;;;34.55;6.25;;;9.10;99.90;;;;;;5110921;28;20143;-67
2022/01/27 11:47:49;;;;;;;30.92;4.85;;;9.20;99.90;;;;;;5108103;28;20048;-66
2022/01/27 11:50:36;;;;;;;31.10;4.63;;;9.30;99.90;;;;;;5113464;27;20094;-67
2022/01/27 11:53:07;;;;;;;31.17;5.03;;;9.30;99.90;;;;;;5109278;28;20051;-67
2022/01/27 11:55:33;;;;;;;41.17;5.57;;;9.50;99.90;;;;;;5117645;27;20031;-70
2022/01/27 11:58:00;;;;;;;43.65;6.35;;;9.60;99.90;;;;;;5110226;27;20548;-68
2022/01/27 12:00:28;;;;;;;35.92;5.80;;;9.90;99.90;;;;;;5110778;28;20067;-67
2022/01/27 12:02:57;;;;;;;31.50;5.45;;;9.00;99.90;;;;;;5110123;28;20097;-66
2022/01/27 12:05:42;;;;;;;41.55;7.65;;;9.50;99.90;;;;;;5110004;28;20043;-68
2022/01/27 12:08:14;;;;;;;36.85;5.78;;;9.30;99.90;;;;;;5107853;28;20046;-66
2022/01/27 12:11:00;;;;;;;43.88;6.05;;;9.20;99.90;;;;;;5106550;28;20097;-67
2022/01/27 12:19:21;;;;;;;29.38;4.72;;;10.10;99.90;;;;;;5134507;27;20196;-66
2022/01/27 12:21:54;;;;;;;41.83;6.53;;;9.30;99.90;;;;;;5050722;28;20060;-67
2022/01/27 12:24:27;;;;;;;31.48;4.63;;;9.30;99.90;;;;;;5118047;27;20047;-66
2022/01/27 12:27:16;;;;;;;34.47;4.93;;;9.40;99.90;;;;;;5134055;27;20039;-69
2022/01/27 12:29:47;;;;;;;36.58;4.90;;;9.00;99.90;;;;;;5133906;27;20047;-71
2022/01/27 12:32:20;;;;;;;36.65;5.03;;;9.90;99.90;;;;;;5133891;27;20379;-68
2022/01/27 12:34:55;;;;;;;29.02;4.68;;;9.60;99.90;;;;;;5133920;27;20086;-69
2022/01/27 12:37:23;;;;;;;30.80;5.22;;;9.60;99.90;;;;;;5134062;27;20059;-70
2022/01/27 12:39:55;;;;;;;31.63;5.05;;;9.60;99.90;;;;;;5132891;27;20487;-70
2022/01/27 12:42:25;;;;;;;33.80;4.47;;;9.60;99.90;;;;;;5133539;27;20075;-69
2022/01/27 12:44:57;;;;;;;34.60;5.22;;;9.30;99.90;;;;;;5134097;27;20410;-68
2022/01/27 12:47:24;;;;;;;30.73;5.50;;;9.40;99.90;;;;;;5133325;27;20483;-68
2022/01/27 12:50:12;;;;;;;35.22;4.85;;;9.30;99.90;;;;;;5133788;27;20043;-69
2022/01/27 12:52:43;;;;;;;40.90;5.57;;;9.30;99.90;;;;;;5133819;27;20047;-70
2022/01/27 12:55:17;;;;;;;29.02;4.85;;;9.40;99.90;;;;;;5115678;28;20047;-67
2022/01/27 12:57:43;;;;;;;38.85;4.97;;;9.20;99.90;;;;;;5133860;27;20498;-69
2022/01/27 13:00:12;;;;;;;36.75;5.05;;;9.70;99.90;;;;;;5133809;27;20051;-69
2022/01/27 13:02:38;;;;;;;34.05;5.35;;;9.10;99.90;;;;;;5133579;27;20084;-67
2022/01/27 13:05:05;;;;;;;;;;;9.50;99.90;;;;;;5132850;28;20050;-67
2022/01/27 13:07:36;;;;;;;35.03;4.80;;;9.00;99.90;;;;;;5133443;27;19920;-67
2022/01/27 13:10:10;;;;;;;31.77;4.93;;;9.30;99.90;;;;;;5133491;27;20094;-66
2022/01/27 13:12:43;;;;;;;31.48;4.93;;;9.30;99.90;;;;;;5133509;27;20371;-67
2022/01/27 13:15:15;;;;;;;34.70;5.00;;;9.30;99.90;;;;;;5133571;27;20122;-67
2022/01/27 13:23:12;;;;;;;34.83;4.93;;;9.10;99.90;;;;;;5133629;27;20607;-66
2022/01/27 13:25:49;;;;;;;28.80;4.28;;;10.10;99.90;;;;;;5133416;27;20149;-67
2022/01/27 13:28:24;;;;;;;33.20;5.70;;;9.10;99.90;;;;;;5133342;27;20050;-66
2022/01/27 13:30:52;;;;;;;33.20;4.80;;;9.40;99.90;;;;;;5115490;27;20512;-67
2022/01/27 13:33:24;;;;;;;40.65;5.57;;;8.90;99.90;;;;;;5112217;28;20390;-67
2022/01/27 13:35:51;;;;;;;28.35;4.32;;;8.90;99.90;;;;;;5112848;28;20131;-68
2022/01/27 13:38:22;;;;;;;29.30;4.72;;;9.20;99.90;;;;;;5112893;28;20051;-68
2022/01/27 13:41:22;;;;;;;31.35;5.57;;;9.20;99.90;;;;;;5112142;28;20112;-68
2022/01/27 13:43:53;;;;;;;34.47;4.45;;;9.20;99.90;;;;;;5116993;28;20047;-67
2022/01/27 13:46:53;;;;;;;37.40;4.75;;;10.60;99.90;;;;;;5116584;28;20054;-68
2022/01/27 13:49:29;;;;;;;26.98;3.75;;;8.80;99.90;;;;;;5089687;28;20096;-68
2022/01/27 13:51:56;;;;;;;28.88;4.30;;;8.80;99.90;;;;;;5121967;27;20408;-68